createdAt,value
2022-11-27T00:05:18.458Z,102412.16
2022-11-27T00:10:40.295Z,102405.97
2022-11-27T00:16:02.436Z,102395.94
2022-11-27T00:21:32.127Z,102386.97
2022-11-27T00:26:53.853Z,102372.28
2022-11-27T00:32:15.502Z,102368.84
2022-11-27T00:37:37.368Z,102345.19
2022-11-27T00:42:59.108Z,102347.31
2022-11-27T00:48:20.782Z,102325.56
2022-11-27T00:53:42.976Z,102316.59
2022-11-27T00:59:06.058Z,102310.22
2022-11-27T01:04:27.790Z,102284.63
2022-11-27T01:09:49.547Z,102302.53
2022-11-27T01:15:11.676Z,102309.16
2022-11-27T01:20:33.296Z,102314.88
2022-11-27T01:25:55.150Z,102297.41
2022-11-27T01:31:20.664Z,102290.38
2022-11-27T01:36:42.408Z,102291.03
2022-11-27T01:42:04.319Z,102286.31
2022-11-27T01:47:32.896Z,102272.69
2022-11-27T01:53:00.203Z,102266.50
2022-11-27T01:58:25.679Z,102246.47
2022-11-27T02:03:47.413Z,102236.44
2022-11-27T02:09:09.082Z,102215.13
2022-11-27T02:14:53.055Z,102203.19
2022-11-27T02:20:36.173Z,102202.53
2022-11-27T02:26:25.658Z,102197.44
2022-11-27T02:32:15.083Z,102205.94
2022-11-27T02:37:39.571Z,102207.25
2022-11-27T02:43:11.534Z,102205.31
2022-11-27T02:48:42.705Z,102210.00
2022-11-27T02:54:07.430Z,102210.41
2022-11-27T02:59:32.037Z,102227.03
2022-11-27T03:04:57.482Z,102205.91
2022-11-27T03:10:34.553Z,102201.44
2022-11-27T03:16:17.637Z,102182.91
2022-11-27T03:21:42.630Z,102190.81
2022-11-27T03:27:05.466Z,102180.78
2022-11-27T03:32:28.960Z,102182.69
2022-11-27T03:37:51.446Z,102194.00
2022-11-27T03:43:23.180Z,102195.72
2022-11-27T03:48:50.488Z,102196.78
2022-11-27T03:54:20.805Z,102195.06
2022-11-27T03:59:44.954Z,102203.59
2022-11-27T04:05:07.038Z,102186.97
2022-11-27T04:10:28.755Z,102180.56
2022-11-27T04:15:50.473Z,102176.31
2022-11-27T04:21:12.949Z,102192.94
2022-11-27T04:26:34.670Z,102185.47
2022-11-27T04:31:56.376Z,102181.00
2022-11-27T04:37:18.091Z,102171.84
2022-11-27T04:42:39.775Z,102165.66
2022-11-27T04:48:01.432Z,102164.81
2022-11-27T04:53:23.246Z,102157.56
2022-11-27T04:58:44.976Z,102150.31
2022-11-27T05:04:06.644Z,102143.91
2022-11-27T05:09:28.371Z,102141.16
2022-11-27T05:14:50.069Z,102146.91
2022-11-27T05:20:11.858Z,102136.06
2022-11-27T05:25:33.500Z,102123.03
2022-11-27T05:30:55.262Z,102118.56
2022-11-27T05:36:16.968Z,102119.63
2022-11-27T05:41:41.142Z,102104.06
2022-11-27T05:47:02.845Z,102095.13
2022-11-27T05:52:24.569Z,102086.81
2022-11-27T05:57:46.308Z,102077.69
2022-11-27T06:03:08.098Z,102068.50
2022-11-27T06:08:29.789Z,102052.97
2022-11-27T06:13:51.772Z,102050.22
2022-11-27T06:19:13.874Z,102054.03
2022-11-27T06:24:35.556Z,102036.56
2022-11-27T06:29:57.212Z,102034.84
2022-11-27T06:35:18.899Z,102022.94
2022-11-27T06:40:40.585Z,102020.16
2022-11-27T06:46:03.610Z,102006.59
2022-11-27T06:51:27.187Z,102007.78
2022-11-27T06:56:52.086Z,102004.72
2022-11-27T07:02:16.612Z,101989.34
2022-11-27T07:07:43.438Z,101977.97
2022-11-27T07:13:05.740Z,101979.03
2022-11-27T07:18:28.228Z,101968.81
2022-11-27T07:23:50.219Z,101969.13
2022-11-27T07:29:11.861Z,101975.44
2022-11-27T07:34:33.622Z,101965.09
2022-11-27T07:40:02.307Z,101956.63
2022-11-27T07:45:24.875Z,101958.00
2022-11-27T07:50:46.828Z,101954.63
2022-11-27T07:56:15.368Z,101952.13
2022-11-27T08:01:37.069Z,101957.09
2022-11-27T08:06:58.831Z,101948.81
2022-11-27T08:12:20.600Z,101953.56
2022-11-27T08:17:42.363Z,101945.91
2022-11-27T08:23:04.757Z,101954.03
2022-11-27T08:28:26.459Z,101948.34
2022-11-27T08:33:48.183Z,101946.00
2022-11-27T08:39:10.143Z,101938.97
2022-11-27T08:44:31.892Z,101941.13
2022-11-27T08:49:53.569Z,101933.25
2022-11-27T08:55:15.425Z,101926.00
2022-11-27T09:00:38.142Z,101919.63
2022-11-27T09:06:00.098Z,101921.09
2022-11-27T09:11:21.790Z,101917.88
2022-11-27T09:16:43.572Z,101917.00
2022-11-27T09:22:05.494Z,101914.47
2022-11-27T09:27:27.489Z,101913.84
2022-11-27T09:32:49.611Z,101911.50
2022-11-27T09:38:11.310Z,101908.34
2022-11-27T09:43:41.266Z,101904.09
2022-11-27T09:49:07.696Z,101901.75
2022-11-27T09:54:29.304Z,101902.19
2022-11-27T09:59:53.168Z,101889.88
2022-11-27T10:05:26.864Z,101882.63
2022-11-27T10:11:06.867Z,101879.22
2022-11-27T10:17:08.188Z,101857.91
2022-11-27T10:23:15.120Z,101844.06
2022-11-27T10:28:51.467Z,101846.44
2022-11-27T10:34:48.756Z,101837.47
2022-11-27T10:40:10.257Z,101827.31
2022-11-27T10:45:38.391Z,101822.16
2022-11-27T10:51:00.648Z,101815.38
2022-11-27T10:56:50.733Z,101801.06
2022-11-27T11:02:44.818Z,101783.00
2022-11-27T11:08:17.468Z,101781.69
2022-11-27T11:13:42.036Z,101774.44
2022-11-27T11:19:06.338Z,101765.31
2022-11-27T11:24:32.996Z,101774.44
2022-11-27T11:30:02.927Z,101756.13
2022-11-27T11:35:34.838Z,101742.91
2022-11-27T11:41:02.407Z,101715.66
2022-11-27T11:46:28.724Z,101702.88
2022-11-27T11:51:50.460Z,101689.03
2022-11-27T11:57:42.636Z,101702.44
2022-11-27T12:03:23.924Z,101693.50
2022-11-27T12:08:54.209Z,101673.47
2022-11-27T12:14:34.429Z,101675.19
2022-11-27T12:20:33.545Z,101661.97
2022-11-27T12:26:20.101Z,101660.97
2022-11-27T12:31:41.727Z,101645.94
2022-11-27T12:37:28.480Z,101637.63
2022-11-27T12:43:09.641Z,101622.91
2022-11-27T12:48:36.720Z,101618.88
2022-11-27T12:54:16.568Z,101615.38
2022-11-27T12:59:43.867Z,101605.13
2022-11-27T13:05:07.738Z,101601.50
2022-11-27T13:10:32.413Z,101591.50
2022-11-27T13:16:18.887Z,101585.19
2022-11-27T13:21:43.177Z,101590.59
2022-11-27T13:27:18.557Z,101580.47
2022-11-27T13:32:47.041Z,101558.22
2022-11-27T13:38:23.017Z,101559.34
2022-11-27T13:43:47.025Z,101543.31
2022-11-27T13:49:09.007Z,101540.94
2022-11-27T13:54:30.720Z,101545.16
2022-11-27T14:00:13.761Z,101537.53
2022-11-27T14:05:45.611Z,101538.88
2022-11-27T14:11:12.989Z,101535.97
2022-11-27T14:16:36.277Z,101528.00
2022-11-27T14:21:58.004Z,101508.31
2022-11-27T14:27:26.019Z,101501.41
2022-11-27T14:32:48.621Z,101495.59
2022-11-27T14:38:11.730Z,101486.78
2022-11-27T14:43:33.639Z,101479.56
2022-11-27T14:48:59.256Z,101461.91
2022-11-27T14:54:26.065Z,101471.81
2022-11-27T14:59:47.803Z,101456.81
2022-11-27T15:05:27.208Z,101441.53
2022-11-27T15:10:53.234Z,101437.81
2022-11-27T15:16:19.800Z,101434.09
2022-11-27T15:21:41.566Z,101423.25
2022-11-27T15:27:15.316Z,101429.81
2022-11-27T15:32:51.763Z,101420.38
2022-11-27T15:38:18.457Z,101395.25
2022-11-27T15:43:40.129Z,101401.81
2022-11-27T15:49:01.787Z,101385.06
2022-11-27T15:54:24.737Z,101382.94
2022-11-27T15:59:46.655Z,101372.38
2022-11-27T16:05:09.146Z,101368.56
2022-11-27T16:10:31.691Z,101365.81
2022-11-27T16:15:53.482Z,101359.84
2022-11-27T16:21:17.439Z,101351.31
2022-11-27T16:26:39.173Z,101343.59
2022-11-27T16:32:01.466Z,101328.16
2022-11-27T16:37:23.768Z,101323.84
2022-11-27T16:42:45.441Z,101322.06
2022-11-27T16:48:07.556Z,101309.16
2022-11-27T16:53:29.552Z,101308.47
2022-11-27T16:58:52.007Z,101302.78
2022-11-27T17:04:21.032Z,101298.22
2022-11-27T17:09:42.726Z,101286.38
2022-11-27T17:15:04.814Z,101274.94
2022-11-27T17:20:26.746Z,101269.88
2022-11-27T17:25:48.471Z,101250.97
2022-11-27T17:31:13.016Z,101249.84
2022-11-27T17:36:37.353Z,101241.75
2022-11-27T17:41:59.260Z,101234.53
2022-11-27T17:47:21.003Z,101236.69
2022-11-27T17:52:42.686Z,101228.28
2022-11-27T17:58:05.112Z,101217.38
2022-11-27T18:03:28.742Z,101215.00
2022-11-27T18:08:50.438Z,101203.78
2022-11-27T18:14:13.756Z,101194.16
2022-11-27T18:19:35.519Z,101177.88
2022-11-27T18:24:57.276Z,101168.78
2022-11-27T18:30:19.073Z,101184.38
2022-11-27T18:35:42.584Z,101185.31
2022-11-27T18:41:10.063Z,101178.31
2022-11-27T18:46:32.085Z,101173.25
2022-11-27T18:51:54.415Z,101172.78
2022-11-27T18:57:16.179Z,101170.66
2022-11-27T19:02:37.872Z,101162.41
2022-11-27T19:08:04.334Z,101152.44
2022-11-27T19:13:26.628Z,101133.22
2022-11-27T19:18:48.501Z,101115.38
2022-11-27T19:24:11.408Z,101109.41
2022-11-27T19:29:33.123Z,101103.72
2022-11-27T19:34:54.780Z,101099.13
2022-11-27T19:40:17.486Z,101098.09
2022-11-27T19:45:39.227Z,101087.75
2022-11-27T19:51:02.125Z,101077.22
2022-11-27T19:56:27.139Z,101066.84
2022-11-27T20:01:48.944Z,101064.31
2022-11-27T20:07:10.732Z,101073.50
2022-11-27T20:12:36.472Z,101070.16
2022-11-27T20:17:58.211Z,101050.63
2022-11-27T20:23:19.921Z,101035.81
2022-11-27T20:28:42.607Z,101033.13
2022-11-27T20:34:06.170Z,101020.94
2022-11-27T20:39:28.632Z,101021.31
2022-11-27T20:44:50.368Z,101019.91
2022-11-27T20:50:12.294Z,101017.31
2022-11-27T20:55:34.599Z,101016.72
2022-11-27T21:01:00.008Z,101016.97
2022-11-27T21:06:25.031Z,100988.47
2022-11-27T21:11:47.715Z,100981.16
2022-11-27T21:17:09.640Z,100973.81
2022-11-27T21:22:32.486Z,100977.63
2022-11-27T21:27:56.076Z,100965.22
2022-11-27T21:33:18.149Z,100945.59
2022-11-27T21:38:39.986Z,100949.94
2022-11-27T21:44:02.963Z,100948.41
2022-11-27T21:49:24.714Z,100931.91
2022-11-27T21:54:46.418Z,100928.16
2022-11-27T22:00:08.889Z,100928.84
2022-11-27T22:05:30.966Z,100923.16
2022-11-27T22:10:52.681Z,100921.94
2022-11-27T22:16:21.363Z,100916.28
2022-11-27T22:21:44.575Z,100913.69
2022-11-27T22:27:07.122Z,100909.72
2022-11-27T22:32:29.171Z,100902.44
2022-11-27T22:37:54.631Z,100896.00
2022-11-27T22:43:16.338Z,100906.94
2022-11-27T22:48:38.605Z,100902.16
2022-11-27T22:54:02.378Z,100905.66
2022-11-27T22:59:33.326Z,100907.53
2022-11-27T23:04:56.002Z,100906.34
2022-11-27T23:10:17.764Z,100906.03
2022-11-27T23:15:39.718Z,100898.75
2022-11-27T23:21:06.882Z,100896.19
2022-11-27T23:26:28.540Z,100896.72
2022-11-27T23:31:50.270Z,100889.72
2022-11-27T23:37:12.199Z,100886.38
2022-11-27T23:42:35.178Z,100899.09
2022-11-27T23:47:56.836Z,100892.94
2022-11-27T23:53:18.484Z,100900.09
2022-11-27T23:58:46.436Z,100898.41
